Muschberg en Geestenberg, Netherlands
Current Conditions -  °F | °C
As of 10:39 AM on Tuesday 21 Oct 2014 (Local Time) from EHEH Reporting Station
Overcast Overcast  
Wind Chill: 55°   Ceiling: 1400
Heat Index: 55°   Visibility: 6mi
Dew Point: 50°   Wind: 20mph
Humidity: 82%   Direction: 200°SSW
Pressure: 29.65"   Gusts: NA
Location:  51.44°N, 5.52°E
Report Text: EHEH 210839Z AUTO 20017KT 9999 BKN014 OVC017 13/10 Q1004 GRN 21015G25KT 9999 -RADZ FEW014 BKN030 TEMPO FEW010 SCT012CB SCT018 BKN020
Loading
Personal Weather Stations






























Interactive Weather Map
Tropical Storm Tracking
New forecast layout! Learn more

10-Day Weather Forecast

Advertisements
Track Severe Weather on mobile